Time;durP1;ratioP1;P1;durP2;ratioP2;P2;SDS_P1;SDS_P2;PMS_P1;PMS_P2;Temp;Humidity;BMP_temperature;BMP_pressure;BME280_temperature;BME280_humidity;BME280_pressure;Samples;Min_cycle;Max_cycle;Signal;HPM_P1;HPM_P2
2021/06/25 00:01:39;;;;;;;14.65;13.02;;;;;;;;;;5061437;28;20056;-73
2021/06/25 00:04:05;;;;;;;18.83;15.95;;;;;;;;;;5044024;28;20106;-72
2021/06/25 00:06:32;;;;;;;18.98;16.27;;;;;;;;;;5061484;28;20154;-73
2021/06/25 00:08:58;;;;;;;20.55;15.88;;;;;;;;;;5061610;28;20043;-72
2021/06/25 00:11:25;;;;;;;17.35;13.35;;;;;;;;;;5062957;28;20078;-73
2021/06/25 00:13:52;;;;;;;15.13;12.82;;;;;;;;;;5062578;28;20041;-72
2021/06/25 00:16:18;;;;;;;15.10;12.63;;;;;;;;;;5061858;28;20185;-72
2021/06/25 00:18:44;;;;;;;14.40;12.75;;;;;;;;;;5060571;28;20129;-73
2021/06/25 00:21:11;;;;;;;15.55;13.85;;;;;;;;;;5059231;28;20040;-73
2021/06/25 00:23:37;;;;;;;18.50;14.77;;;;;;;;;;5046693;28;20044;-72
2021/06/25 00:26:04;;;;;;;18.35;14.60;;;;;;;;;;5062647;28;20098;-73
2021/06/25 00:28:31;;;;;;;14.18;11.70;;;;;;;;;;5048946;28;20114;-73
2021/06/25 00:30:57;;;;;;;17.52;12.23;;;;;;;;;;5060958;28;20048;-73
2021/06/25 00:33:24;;;;;;;12.43;10.70;;;;;;;;;;5061325;28;20056;-72
2021/06/25 00:35:50;;;;;;;16.52;11.43;;;;;;;;;;5062769;28;20048;-73
2021/06/25 00:38:16;;;;;;;16.00;12.55;;;;;;;;;;5059995;28;20389;-73
2021/06/25 00:40:42;;;;;;;15.15;12.45;;;;;;;;;;5062648;28;20066;-73
2021/06/25 00:43:09;;;;;;;14.30;11.57;;;;;;;;;;5041880;28;20047;-73
2021/06/25 00:45:36;;;;;;;14.82;12.82;;;;;;;;;;5060576;28;20091;-73
2021/06/25 00:48:02;;;;;;;15.32;12.50;;;;;;;;;;5059853;28;20072;-72
2021/06/25 00:50:30;;;;;;;15.40;13.00;;;;;;;;;;5061636;28;20074;-72
2021/06/25 00:52:57;;;;;;;14.70;12.38;;;;;;;;;;5045324;28;20037;-73
2021/06/25 00:55:25;;;;;;;12.93;10.98;;;;;;;;;;5061033;28;20475;-72
2021/06/25 00:57:51;;;;;;;9.27;7.03;;;;;;;;;;5060763;28;20115;-73
2021/06/25 01:00:19;;;;;;;6.90;5.47;;;;;;;;;;5043356;28;20041;-73
2021/06/25 01:02:45;;;;;;;6.65;5.38;;;;;;;;;;5061759;28;20084;-72
2021/06/25 01:05:13;;;;;;;10.95;7.57;;;;;;;;;;5063571;28;20040;-73
2021/06/25 01:07:39;;;;;;;7.60;5.90;;;;;;;;;;5063236;28;20413;-73
2021/06/25 01:10:06;;;;;;;8.13;5.57;;;;;;;;;;5065137;28;20090;-73
2021/06/25 01:12:33;;;;;;;9.05;5.68;;;;;;;;;;5063540;28;20048;-72
2021/06/25 01:14:59;;;;;;;8.95;5.93;;;;;;;;;;5062757;28;20106;-72
2021/06/25 01:17:28;;;;;;;6.93;4.82;;;;;;;;;;5064061;28;20063;-73
2021/06/25 01:19:54;;;;;;;8.05;4.75;;;;;;;;;;5065243;28;20040;-73
2021/06/25 01:22:25;;;;;;;4.97;3.38;;;;;;;;;;5044017;28;20403;-72
2021/06/25 01:24:51;;;;;;;10.82;3.45;;;;;;;;;;5063554;28;20118;-73
2021/06/25 01:27:17;;;;;;;50.03;5.43;;;;;;;;;;5063714;28;20132;-72
2021/06/25 01:29:44;;;;;;;67.47;6.43;;;;;;;;;;5049703;28;20413;-72
2021/06/25 01:32:10;;;;;;;134.27;9.20;;;;;;;;;;5065236;28;20418;-73
2021/06/25 01:34:37;;;;;;;207.25;12.25;;;;;;;;;;5064252;28;20105;-73
2021/06/25 01:37:03;;;;;;;187.40;11.90;;;;;;;;;;5066052;28;20088;-72
2021/06/25 01:39:30;;;;;;;114.13;10.02;;;;;;;;;;5064202;28;20400;-72
2021/06/25 01:41:56;;;;;;;125.38;10.57;;;;;;;;;;5047282;28;20036;-72
2021/06/25 01:44:22;;;;;;;20.60;7.32;;;;;;;;;;5065458;28;20060;-72
2021/06/25 01:46:49;;;;;;;11.45;7.03;;;;;;;;;;5065081;28;20247;-72
2021/06/25 01:49:15;;;;;;;8.18;6.15;;;;;;;;;;5062771;28;20048;-73
2021/06/25 01:51:46;;;;;;;9.07;7.40;;;;;;;;;;5064486;28;20094;-72
2021/06/25 01:54:13;;;;;;;11.98;7.38;;;;;;;;;;5069144;28;20044;-73
2021/06/25 01:56:39;;;;;;;10.93;8.82;;;;;;;;;;5067356;28;20075;-72
2021/06/25 01:59:06;;;;;;;8.63;7.50;;;;;;;;;;5068735;28;20037;-73
2021/06/25 02:01:33;;;;;;;8.40;7.00;;;;;;;;;;5069067;28;20044;-72
2021/06/25 02:03:59;;;;;;;12.52;8.45;;;;;;;;;;5068773;28;20093;-72
2021/06/25 02:06:25;;;;;;;12.65;9.10;;;;;;;;;;5065760;28;20091;-72
2021/06/25 02:08:52;;;;;;;12.65;9.75;;;;;;;;;;5065843;28;20051;-73
2021/06/25 02:11:19;;;;;;;12.63;9.70;;;;;;;;;;5063519;28;20399;-72
2021/06/25 02:13:45;;;;;;;11.73;8.60;;;;;;;;;;5066722;28;20483;-72
2021/06/25 02:16:11;;;;;;;211.60;19.02;;;;;;;;;;5066384;28;20036;-73
2021/06/25 02:18:37;;;;;;;146.60;16.98;;;;;;;;;;5064210;28;20413;-72
2021/06/25 02:21:04;;;;;;;72.07;14.65;;;;;;;;;;5063626;28;20558;-72
2021/06/25 02:23:30;;;;;;;68.50;15.38;;;;;;;;;;5061284;28;20047;-73
2021/06/25 02:25:57;;;;;;;19.40;15.30;;;;;;;;;;5060662;28;20045;-72
2021/06/25 02:28:23;;;;;;;17.58;14.35;;;;;;;;;;5065570;28;20048;-72
2021/06/25 02:30:50;;;;;;;15.32;12.00;;;;;;;;;;5046169;28;20118;-73
2021/06/25 02:33:16;;;;;;;18.63;13.77;;;;;;;;;;5060794;28;20068;-72
2021/06/25 02:35:42;;;;;;;17.45;13.82;;;;;;;;;;5066257;28;20056;-72
2021/06/25 02:38:08;;;;;;;16.83;13.43;;;;;;;;;;5066908;28;20068;-72
2021/06/25 02:40:35;;;;;;;16.67;13.43;;;;;;;;;;5046868;28;20162;-72
2021/06/25 02:43:01;;;;;;;18.60;13.48;;;;;;;;;;5067819;28;20037;-72
2021/06/25 02:45:27;;;;;;;15.35;12.15;;;;;;;;;;5066540;28;20162;-72
2021/06/25 02:47:54;;;;;;;14.68;11.82;;;;;;;;;;5067001;28;20098;-72
2021/06/25 02:50:20;;;;;;;15.35;12.52;;;;;;;;;;5066482;28;20068;-72
2021/06/25 02:52:47;;;;;;;19.25;14.27;;;;;;;;;;5067399;28;20052;-72
2021/06/25 02:55:14;;;;;;;17.92;14.43;;;;;;;;;;5067009;28;20539;-72
2021/06/25 02:57:41;;;;;;;17.98;14.98;;;;;;;;;;5067477;28;20897;-72
2021/06/25 03:00:09;;;;;;;20.95;15.30;;;;;;;;;;5067067;28;20098;-72
2021/06/25 03:02:36;;;;;;;17.88;15.07;;;;;;;;;;5049502;28;20123;-72
2021/06/25 03:05:02;;;;;;;20.95;16.63;;;;;;;;;;5068344;28;20166;-72
2021/06/25 03:07:28;;;;;;;23.70;17.13;;;;;;;;;;5063805;28;20043;-72
2021/06/25 03:09:54;;;;;;;18.27;14.98;;;;;;;;;;5065902;28;20045;-72
2021/06/25 03:12:21;;;;;;;18.48;15.80;;;;;;;;;;5044827;28;20032;-72
2021/06/25 03:14:47;;;;;;;21.85;16.23;;;;;;;;;;5044222;28;20051;-72
2021/06/25 03:17:13;;;;;;;24.45;17.33;;;;;;;;;;5066103;28;20040;-72
2021/06/25 03:19:40;;;;;;;21.65;17.52;;;;;;;;;;5072637;28;20433;-72
2021/06/25 03:22:06;;;;;;;24.75;17.65;;;;;;;;;;5068467;28;20576;-72
2021/06/25 03:24:34;;;;;;;21.98;18.02;;;;;;;;;;5073709;28;20106;-72
2021/06/25 03:27:01;;;;;;;29.10;18.30;;;;;;;;;;5063114;28;20750;-72
2021/06/25 03:29:27;;;;;;;26.00;18.95;;;;;;;;;;5063838;28;20036;-72
2021/06/25 03:31:53;;;;;;;25.30;19.08;;;;;;;;;;5061738;28;20131;-72
2021/06/25 03:34:19;;;;;;;25.92;17.83;;;;;;;;;;5048108;28;20049;-72
2021/06/25 03:36:46;;;;;;;24.67;17.38;;;;;;;;;;5068071;28;20052;-72
2021/06/25 03:39:12;;;;;;;21.58;17.33;;;;;;;;;;5055062;28;20114;-72
2021/06/25 03:41:39;;;;;;;22.77;16.45;;;;;;;;;;5043413;28;20083;-72
2021/06/25 03:44:05;;;;;;;20.95;16.70;;;;;;;;;;5046654;28;20503;-72
2021/06/25 03:46:31;;;;;;;19.58;16.08;;;;;;;;;;5049801;28;20041;-72
2021/06/25 03:48:58;;;;;;;19.20;15.95;;;;;;;;;;5034586;28;20099;-72
2021/06/25 03:51:24;;;;;;;19.52;16.45;;;;;;;;;;5051771;28;20437;-72
2021/06/25 03:53:50;;;;;;;20.50;16.33;;;;;;;;;;5054518;28;20045;-73
2021/06/25 03:56:17;;;;;;;21.08;15.85;;;;;;;;;;5048859;28;20045;-72
2021/06/25 03:58:44;;;;;;;17.67;15.32;;;;;;;;;;5046586;28;20045;-72
2021/06/25 04:01:11;;;;;;;20.48;14.43;;;;;;;;;;5050075;28;20135;-71
2021/06/25 04:03:38;;;;;;;21.48;15.45;;;;;;;;;;5043708;28;20099;-71
2021/06/25 04:06:04;;;;;;;21.95;16.10;;;;;;;;;;5042045;28;20107;-71
2021/06/25 04:08:32;;;;;;;20.95;17.05;;;;;;;;;;5044925;28;20047;-71
2021/06/25 04:10:59;;;;;;;19.40;16.13;;;;;;;;;;5034549;28;20389;-71
2021/06/25 04:13:27;;;;;;;21.75;15.57;;;;;;;;;;5039161;28;20187;-71
2021/06/25 04:15:53;;;;;;;26.90;18.58;;;;;;;;;;5045755;28;20086;-71
2021/06/25 04:18:20;;;;;;;26.75;19.27;;;;;;;;;;5041540;28;20442;-71
2021/06/25 04:20:46;;;;;;;29.83;20.80;;;;;;;;;;5048764;28;20076;-71
2021/06/25 04:23:13;;;;;;;33.20;23.60;;;;;;;;;;5049232;28;20033;-71
2021/06/25 04:25:39;;;;;;;37.20;23.90;;;;;;;;;;5024203;28;20583;-71
2021/06/25 04:28:06;;;;;;;41.72;25.55;;;;;;;;;;5049220;28;20049;-71
2021/06/25 04:30:33;;;;;;;38.72;24.80;;;;;;;;;;5045321;28;20036;-71
2021/06/25 04:33:01;;;;;;;34.22;24.35;;;;;;;;;;5049482;28;20040;-71
2021/06/25 04:35:28;;;;;;;32.53;23.90;;;;;;;;;;5049442;28;20045;-71
2021/06/25 04:37:54;;;;;;;39.25;24.92;;;;;;;;;;5050681;28;20119;-71
2021/06/25 04:40:20;;;;;;;35.58;25.15;;;;;;;;;;5058682;28;20036;-72
2021/06/25 04:42:47;;;;;;;34.50;25.70;;;;;;;;;;5049059;28;20128;-72
2021/06/25 04:45:13;;;;;;;41.88;26.55;;;;;;;;;;5059765;28;20123;-72
2021/06/25 04:47:41;;;;;;;38.15;25.17;;;;;;;;;;5043400;28;20045;-72
2021/06/25 04:50:07;;;;;;;38.60;25.55;;;;;;;;;;5061070;28;20064;-72
2021/06/25 04:52:34;;;;;;;34.55;26.00;;;;;;;;;;5036105;28;20044;-72
2021/06/25 04:55:00;;;;;;;37.03;26.23;;;;;;;;;;5057304;28;20071;-72
2021/06/25 04:57:27;;;;;;;42.75;26.77;;;;;;;;;;5061814;28;20092;-72
2021/06/25 04:59:54;;;;;;;38.78;28.45;;;;;;;;;;5058099;28;20060;-72
2021/06/25 05:02:20;;;;;;;40.58;28.30;;;;;;;;;;5063951;28;20551;-72
2021/06/25 05:04:47;;;;;;;35.83;27.83;;;;;;;;;;5061469;28;20068;-72
2021/06/25 05:07:13;;;;;;;39.17;28.17;;;;;;;;;;5061081;28;20041;-72
2021/06/25 05:09:39;;;;;;;42.63;29.55;;;;;;;;;;5068475;28;20156;-73
2021/06/25 05:12:06;;;;;;;39.75;29.17;;;;;;;;;;5060430;28;20056;-73
2021/06/25 05:14:39;;;;;;;;;;;;;;;;;;5069130;28;20114;-73
2021/06/25 05:17:06;;;;;;;39.72;27.88;;;;;;;;;;5068730;28;19920;-74
2021/06/25 05:19:33;;;;;;;44.78;31.60;;;;;;;;;;5046340;28;20606;-74
2021/06/25 05:21:59;;;;;;;40.88;29.40;;;;;;;;;;5044522;28;20086;-74
2021/06/25 05:24:31;;;;;;;42.95;30.13;;;;;;;;;;5065734;28;20045;-74
2021/06/25 05:26:58;;;;;;;47.15;31.48;;;;;;;;;;5065533;28;20033;-74
2021/06/25 05:29:24;;;;;;;39.03;29.90;;;;;;;;;;5064342;28;20075;-74
2021/06/25 05:31:50;;;;;;;41.72;31.17;;;;;;;;;;5064273;28;20036;-74
2021/06/25 05:34:17;;;;;;;44.70;30.88;;;;;;;;;;5067862;28;20163;-74
2021/06/25 05:36:43;;;;;;;43.42;29.88;;;;;;;;;;5049070;28;20494;-74
2021/06/25 05:39:09;;;;;;;34.88;28.45;;;;;;;;;;5040149;28;20101;-74
2021/06/25 05:41:36;;;;;;;38.95;28.48;;;;;;;;;;5064256;28;20155;-74
2021/06/25 05:44:02;;;;;;;34.45;27.08;;;;;;;;;;5067099;28;20041;-74
2021/06/25 05:46:28;;;;;;;39.22;27.52;;;;;;;;;;5069569;28;20068;-73
2021/06/25 05:48:55;;;;;;;39.65;29.65;;;;;;;;;;5065720;28;20127;-74
2021/06/25 05:51:21;;;;;;;36.95;28.05;;;;;;;;;;5064801;28;20037;-74
2021/06/25 05:53:47;;;;;;;33.25;26.10;;;;;;;;;;5054538;28;20174;-74
2021/06/25 05:56:14;;;;;;;38.38;30.23;;;;;;;;;;5059233;28;20040;-74
2021/06/25 05:58:40;;;;;;;35.92;28.33;;;;;;;;;;5054639;28;20045;-74
2021/06/25 06:01:06;;;;;;;38.58;29.17;;;;;;;;;;5066863;28;20138;-74
2021/06/25 06:03:32;;;;;;;34.55;27.75;;;;;;;;;;5047201;28;20036;-74
2021/06/25 06:06:01;;;;;;;37.25;27.85;;;;;;;;;;5053903;28;20071;-74
2021/06/25 06:08:29;;;;;;;46.10;31.58;;;;;;;;;;5056746;28;20051;-74
2021/06/25 06:10:55;;;;;;;38.65;28.10;;;;;;;;;;5060810;28;20132;-74
2021/06/25 06:13:22;;;;;;;38.95;27.75;;;;;;;;;;5058201;28;20087;-74
2021/06/25 06:15:48;;;;;;;36.22;28.58;;;;;;;;;;5061316;28;20040;-74
2021/06/25 06:18:26;;;;;;;32.42;26.58;;;;;;;;;;5058186;28;20063;-74
2021/06/25 06:20:52;;;;;;;31.25;26.35;;;;;;;;;;5067271;28;20135;-74
2021/06/25 06:34:38;;;;;;;34.33;26.63;;;;;;;;;;5059614;28;20045;-74
2021/06/25 06:37:05;;;;;;;33.90;27.50;;;;;;;;;;5059493;28;20110;-74
2021/06/25 06:39:31;;;;;;;40.08;29.75;;;;;;;;;;5040748;28;20116;-74
2021/06/25 06:41:59;;;;;;;35.60;29.13;;;;;;;;;;5054583;28;20480;-74
2021/06/25 06:44:25;;;;;;;35.53;29.05;;;;;;;;;;5062985;28;20041;-74
2021/06/25 06:46:52;;;;;;;36.08;28.15;;;;;;;;;;5059324;28;20049;-74
2021/06/25 06:49:18;;;;;;;38.67;30.13;;;;;;;;;;5065185;28;20127;-74
2021/06/25 06:51:44;;;;;;;36.60;29.05;;;;;;;;;;5050666;28;20136;-74
2021/06/25 06:54:11;;;;;;;36.13;29.42;;;;;;;;;;5066981;28;20461;-74
2021/06/25 06:56:37;;;;;;;35.95;26.95;;;;;;;;;;5055475;28;20040;-74
2021/06/25 06:59:03;;;;;;;35.72;29.13;;;;;;;;;;5060077;28;20076;-75
2021/06/25 07:01:31;;;;;;;47.10;29.92;;;;;;;;;;5048572;28;20060;-74
2021/06/25 07:03:58;;;;;;;35.95;27.73;;;;;;;;;;5071785;28;20126;-74
2021/06/25 07:06:25;;;;;;;33.53;27.73;;;;;;;;;;5061910;28;20047;-72
2021/06/25 07:08:52;;;;;;;35.15;26.17;;;;;;;;;;5071929;28;20045;-85
2021/06/25 07:11:18;;;;;;;33.35;25.52;;;;;;;;;;5027211;28;20117;-74
2021/06/25 07:13:44;;;;;;;31.48;25.42;;;;;;;;;;5064089;28;20049;-73
2021/06/25 07:16:12;;;;;;;40.75;28.02;;;;;;;;;;5065908;28;20048;-73
2021/06/25 07:18:39;;;;;;;32.70;26.85;;;;;;;;;;5069490;28;20059;-73
2021/06/25 07:21:05;;;;;;;32.85;24.00;;;;;;;;;;5069404;28;20048;-73
2021/06/25 07:23:31;;;;;;;29.20;24.25;;;;;;;;;;5065379;28;20047;-73
2021/06/25 07:25:57;;;;;;;37.33;23.75;;;;;;;;;;5049900;28;20040;-73
2021/06/25 07:28:24;;;;;;;30.25;22.92;;;;;;;;;;5063860;28;20063;-73
2021/06/25 07:30:50;;;;;;;29.95;24.08;;;;;;;;;;5047277;28;20032;-73
2021/06/25 07:33:16;;;;;;;31.35;22.88;;;;;;;;;;5066680;28;20427;-73
2021/06/25 07:35:42;;;;;;;28.13;22.60;;;;;;;;;;5063446;28;20404;-73
2021/06/25 07:38:09;;;;;;;27.13;22.98;;;;;;;;;;5064151;28;20060;-73
2021/06/25 07:40:35;;;;;;;25.83;20.88;;;;;;;;;;5061573;28;20051;-74
2021/06/25 07:43:01;;;;;;;25.85;22.30;;;;;;;;;;5060032;28;20063;-74
2021/06/25 07:45:28;;;;;;;24.42;21.77;;;;;;;;;;5067283;28;20048;-74
2021/06/25 07:47:54;;;;;;;24.65;20.98;;;;;;;;;;5042927;28;20032;-72
2021/06/25 07:50:20;;;;;;;25.75;21.10;;;;;;;;;;5064206;28;20044;-73
2021/06/25 07:52:47;;;;;;;23.27;20.15;;;;;;;;;;5063452;28;20044;-73
2021/06/25 07:55:32;;;;;;;25.13;21.17;;;;;;;;;;5060658;28;20041;-72
2021/06/25 07:57:58;;;;;;;22.70;20.13;;;;;;;;;;5064953;28;20040;-72
2021/06/25 08:00:25;;;;;;;22.48;18.85;;;;;;;;;;5063229;28;20052;-72
2021/06/25 08:02:51;;;;;;;22.48;19.08;;;;;;;;;;5059835;28;20037;-72
2021/06/25 08:05:17;;;;;;;23.83;20.40;;;;;;;;;;5042755;28;20048;-72
2021/06/25 08:07:44;;;;;;;23.17;20.70;;;;;;;;;;5063463;28;20041;-72
2021/06/25 08:10:10;;;;;;;25.02;20.63;;;;;;;;;;5059718;28;20161;-72
2021/06/25 08:12:37;;;;;;;23.95;20.90;;;;;;;;;;5066110;28;20515;-72
2021/06/25 08:15:03;;;;;;;24.00;19.77;;;;;;;;;;5067203;28;20524;-72
2021/06/25 08:17:30;;;;;;;23.60;19.90;;;;;;;;;;5061395;28;20034;-72
2021/06/25 08:19:56;;;;;;;21.42;18.55;;;;;;;;;;5063149;28;20044;-72
2021/06/25 08:22:23;;;;;;;26.77;21.70;;;;;;;;;;5058827;28;20157;-72
2021/06/25 08:24:49;;;;;;;26.08;22.02;;;;;;;;;;5061452;28;20228;-72
2021/06/25 08:27:15;;;;;;;23.85;19.20;;;;;;;;;;5063102;28;20036;-72
2021/06/25 08:29:42;;;;;;;23.45;19.73;;;;;;;;;;5063683;28;20053;-72
2021/06/25 08:32:08;;;;;;;23.20;19.55;;;;;;;;;;5061107;28;20036;-73
2021/06/25 08:34:34;;;;;;;22.80;19.40;;;;;;;;;;5058248;28;20400;-73
2021/06/25 08:37:01;;;;;;;21.15;18.75;;;;;;;;;;5058172;28;20059;-73
2021/06/25 08:39:27;;;;;;;21.75;18.27;;;;;;;;;;5063109;28;20053;-72
2021/06/25 08:41:54;;;;;;;24.30;18.75;;;;;;;;;;5063254;28;20036;-72
2021/06/25 08:44:20;;;;;;;21.98;17.52;;;;;;;;;;5063510;28;20036;-72
2021/06/25 08:46:47;;;;;;;19.95;17.55;;;;;;;;;;5062193;28;20456;-72
2021/06/25 08:49:17;;;;;;;21.55;18.58;;;;;;;;;;5063026;28;20044;-72
2021/06/25 08:51:49;;;;;;;22.70;17.15;;;;;;;;;;5060931;28;20052;-72
2021/06/25 08:54:16;;;;;;;22.67;17.83;;;;;;;;;;5062916;28;20036;-72
2021/06/25 08:56:42;;;;;;;21.90;17.98;;;;;;;;;;5060003;28;20109;-72
2021/06/25 08:59:08;;;;;;;24.98;18.95;;;;;;;;;;5064264;28;20146;-71
2021/06/25 09:01:36;;;;;;;22.73;18.08;;;;;;;;;;5066189;28;20119;-72
2021/06/25 09:04:04;;;;;;;22.40;17.35;;;;;;;;;;5065286;28;20437;-71
2021/06/25 09:06:32;;;;;;;21.73;18.77;;;;;;;;;;5066000;28;20050;-72
2021/06/25 09:09:11;;;;;;;21.52;17.83;;;;;;;;;;5058863;28;20051;-72
2021/06/25 09:11:40;;;;;;;22.48;18.63;;;;;;;;;;5064606;28;20041;-72
2021/06/25 09:14:06;;;;;;;23.63;20.00;;;;;;;;;;5059684;28;20100;-72
2021/06/25 09:16:34;;;;;;;18.77;16.77;;;;;;;;;;5063275;28;20503;-72
2021/06/25 09:19:05;;;;;;;18.90;16.95;;;;;;;;;;5055763;28;20124;-72
2021/06/25 09:21:33;;;;;;;20.05;16.02;;;;;;;;;;5065355;28;20121;-72
2021/06/25 09:24:14;;;;;;;22.70;17.67;;;;;;;;;;5043213;28;20056;-72
2021/06/25 09:26:41;;;;;;;21.63;18.50;;;;;;;;;;5039995;28;20480;-72
2021/06/25 09:29:10;;;;;;;21.90;17.77;;;;;;;;;;5062615;28;20044;-72
2021/06/25 09:31:36;;;;;;;24.65;19.20;;;;;;;;;;5056553;28;20049;-71
2021/06/25 09:34:03;;;;;;;25.25;19.48;;;;;;;;;;5059791;28;20045;-72
2021/06/25 09:36:31;;;;;;;24.10;20.38;;;;;;;;;;5061631;28;20132;-72
2021/06/25 09:38:59;;;;;;;23.10;18.95;;;;;;;;;;5065741;28;20053;-72
2021/06/25 09:41:26;;;;;;;23.05;19.58;;;;;;;;;;5066615;28;20123;-72
2021/06/25 09:43:54;;;;;;;25.17;19.75;;;;;;;;;;5067983;28;20045;-72
2021/06/25 09:46:27;;;;;;;23.50;19.70;;;;;;;;;;5046240;28;20438;-72
2021/06/25 09:48:55;;;;;;;23.23;18.50;;;;;;;;;;5065144;28;20037;-72
2021/06/25 09:51:22;;;;;;;26.38;19.95;;;;;;;;;;5065824;28;20140;-72
2021/06/25 09:54:01;;;;;;;25.17;20.40;;;;;;;;;;5065112;28;20060;-72
2021/06/25 09:56:27;;;;;;;21.05;18.33;;;;;;;;;;5067019;28;20392;-72
2021/06/25 09:59:21;;;;;;;25.00;21.40;;;;;;;;;;5068142;28;20049;-72
2021/06/25 10:01:47;;;;;;;30.42;20.38;;;;;;;;;;5068520;28;20064;-72
2021/06/25 10:04:14;;;;;;;25.23;20.92;;;;;;;;;;5068015;28;20090;-72
2021/06/25 10:06:40;;;;;;;28.83;21.85;;;;;;;;;;5066518;28;20107;-72
2021/06/25 10:09:07;;;;;;;25.33;20.48;;;;;;;;;;5065555;28;20102;-72
2021/06/25 10:11:34;;;;;;;23.65;21.08;;;;;;;;;;5067346;28;20029;-71
2021/06/25 10:14:02;;;;;;;26.85;21.00;;;;;;;;;;5071519;28;21223;-72
2021/06/25 10:16:29;;;;;;;27.85;22.77;;;;;;;;;;5067179;28;20046;-71
2021/06/25 10:18:56;;;;;;;27.33;22.35;;;;;;;;;;5070801;28;21934;-72
2021/06/25 10:21:24;;;;;;;23.40;20.15;;;;;;;;;;5066512;28;20123;-72
2021/06/25 10:23:52;;;;;;;25.90;22.10;;;;;;;;;;5067573;28;20071;-72
2021/06/25 10:26:19;;;;;;;31.17;23.48;;;;;;;;;;5069853;28;20144;-72
2021/06/25 10:28:47;;;;;;;28.35;22.83;;;;;;;;;;5068319;28;20348;-72
2021/06/25 10:31:15;;;;;;;25.52;20.73;;;;;;;;;;5070638;28;20043;-72
2021/06/25 10:33:42;;;;;;;26.33;22.08;;;;;;;;;;5067986;28;20108;-72
2021/06/25 10:36:11;;;;;;;26.90;22.67;;;;;;;;;;5070219;28;20055;-72
2021/06/25 10:38:39;;;;;;;26.05;21.83;;;;;;;;;;5069362;28;20123;-72
2021/06/25 10:41:06;;;;;;;27.85;23.73;;;;;;;;;;5054598;28;20475;-72
2021/06/25 10:43:44;;;;;;;35.53;23.80;;;;;;;;;;5025434;28;20049;-71
2021/06/25 10:46:33;;;;;;;28.30;23.70;;;;;;;;;;5066665;28;20052;-72
2021/06/25 10:49:01;;;;;;;30.10;25.25;;;;;;;;;;5048657;28;20134;-72
2021/06/25 10:51:31;;;;;;;36.92;27.35;;;;;;;;;;5046183;28;20139;-72
2021/06/25 10:54:09;;;;;;;36.17;27.67;;;;;;;;;;5052044;28;20048;-71
2021/06/25 10:56:37;;;;;;;31.63;25.90;;;;;;;;;;5060206;28;20135;-72
2021/06/25 10:59:13;;;;;;;34.60;27.08;;;;;;;;;;5063921;28;20036;-74
2021/06/25 11:01:47;;;;;;;34.60;27.60;;;;;;;;;;5057369;28;20062;-74
2021/06/25 11:04:32;;;;;;;36.03;29.63;;;;;;;;;;5066977;28;20052;-74
2021/06/25 11:07:02;;;;;;;34.40;29.23;;;;;;;;;;5063451;28;20047;-74
2021/06/25 11:09:49;;;;;;;32.53;27.60;;;;;;;;;;5065389;28;20144;-74
2021/06/25 11:12:16;;;;;;;34.25;27.67;;;;;;;;;;5057715;28;20503;-74
2021/06/25 11:14:42;;;;;;;40.33;29.73;;;;;;;;;;5068553;28;20068;-74
2021/06/25 11:17:09;;;;;;;39.13;30.60;;;;;;;;;;5055624;28;20242;-74
2021/06/25 11:19:37;;;;;;;35.88;29.10;;;;;;;;;;5066920;28;20115;-74
2021/06/25 11:22:04;;;;;;;37.15;29.55;;;;;;;;;;5065235;28;20514;-74
2021/06/25 11:24:47;;;;;;;37.22;27.52;;;;;;;;;;5031834;28;20122;-74
2021/06/25 11:27:14;;;;;;;35.45;28.58;;;;;;;;;;5058164;28;20053;-74
2021/06/25 11:29:44;;;;;;;32.78;28.35;;;;;;;;;;5067774;28;20052;-74
2021/06/25 11:32:12;;;;;;;35.65;30.42;;;;;;;;;;5067035;28;20040;-74
2021/06/25 11:34:38;;;;;;;35.10;28.95;;;;;;;;;;5067964;28;20064;-74
2021/06/25 11:37:04;;;;;;;36.22;29.67;;;;;;;;;;5044130;28;20447;-74
2021/06/25 11:39:30;;;;;;;34.83;28.38;;;;;;;;;;5065946;28;20114;-74
2021/06/25 11:42:01;;;;;;;34.60;29.88;;;;;;;;;;5035582;28;20128;-74
2021/06/25 11:44:27;;;;;;;34.88;29.42;;;;;;;;;;5033746;28;20049;-74
2021/06/25 11:46:55;;;;;;;38.08;29.95;;;;;;;;;;5049956;28;20041;-74
2021/06/25 11:49:23;;;;;;;35.70;29.88;;;;;;;;;;5051232;28;20072;-74
2021/06/25 11:51:49;;;;;;;35.38;29.52;;;;;;;;;;5051059;28;20386;-74
2021/06/25 11:54:18;;;;;;;37.83;30.92;;;;;;;;;;5050347;28;20064;-74
2021/06/25 11:56:45;;;;;;;37.03;30.98;;;;;;;;;;5050777;28;20041;-74
2021/06/25 11:59:14;;;;;;;42.08;34.35;;;;;;;;;;5050864;28;20044;-74
2021/06/25 12:01:52;;;;;;;40.70;33.95;;;;;;;;;;5049884;28;20107;-74
2021/06/25 12:04:31;;;;;;;45.47;35.25;;;;;;;;;;5050672;28;20056;-73
2021/06/25 12:07:00;;;;;;;46.15;36.72;;;;;;;;;;5051004;28;20378;-72
2021/06/25 12:09:37;;;;;;;42.72;37.08;;;;;;;;;;5050039;28;20064;-72
2021/06/25 12:12:04;;;;;;;42.50;36.65;;;;;;;;;;5049163;28;20041;-72
2021/06/25 12:14:41;;;;;;;41.15;35.28;;;;;;;;;;5049659;28;20084;-72
2021/06/25 12:17:07;;;;;;;42.90;36.10;;;;;;;;;;5050786;28;20041;-72
2021/06/25 12:19:33;;;;;;;45.65;35.80;;;;;;;;;;5049831;28;20445;-72
2021/06/25 12:22:07;;;;;;;45.63;37.35;;;;;;;;;;5049632;28;20048;-72
2021/06/25 12:24:46;;;;;;;40.78;34.45;;;;;;;;;;5046016;28;20080;-72
2021/06/25 12:27:13;;;;;;;42.80;36.38;;;;;;;;;;5037954;28;20065;-72
2021/06/25 12:29:39;;;;;;;46.00;37.67;;;;;;;;;;5048775;28;20052;-72
2021/06/25 12:32:13;;;;;;;42.30;36.35;;;;;;;;;;5030831;28;20175;-72
2021/06/25 12:34:39;;;;;;;39.80;34.70;;;;;;;;;;5049857;28;20187;-72
2021/06/25 12:37:05;;;;;;;54.03;36.00;;;;;;;;;;5049417;28;20072;-72
2021/06/25 12:39:33;;;;;;;44.72;36.95;;;;;;;;;;5050150;28;20119;-72
2021/06/25 12:42:01;;;;;;;49.45;38.53;;;;;;;;;;5049585;28;20131;-77
2021/06/25 12:44:27;;;;;;;46.88;36.65;;;;;;;;;;5049181;28;20508;-72
2021/06/25 12:47:02;;;;;;;46.15;39.40;;;;;;;;;;5034130;28;20044;-72
2021/06/25 12:49:31;;;;;;;47.30;37.05;;;;;;;;;;5031376;28;20118;-72
2021/06/25 12:51:57;;;;;;;44.95;38.67;;;;;;;;;;5049772;28;20120;-72
2021/06/25 12:54:29;;;;;;;45.45;39.25;;;;;;;;;;5048832;28;20120;-72
2021/06/25 12:56:55;;;;;;;48.28;38.35;;;;;;;;;;5049024;28;20069;-72
2021/06/25 12:59:23;;;;;;;46.35;38.03;;;;;;;;;;5049380;28;20087;-72
2021/06/25 13:01:50;;;;;;;47.88;40.08;;;;;;;;;;5049532;28;20065;-72
2021/06/25 13:04:23;;;;;;;49.97;39.58;;;;;;;;;;5048913;28;20055;-72
2021/06/25 13:06:52;;;;;;;51.78;40.65;;;;;;;;;;5049493;28;20048;-72
2021/06/25 13:09:26;;;;;;;50.78;40.78;;;;;;;;;;5049894;28;20041;-72
2021/06/25 13:11:53;;;;;;;49.00;41.25;;;;;;;;;;5030752;28;20055;-72
2021/06/25 13:14:31;;;;;;;50.25;41.90;;;;;;;;;;5049410;28;20060;-72
2021/06/25 13:16:59;;;;;;;53.17;42.35;;;;;;;;;;5049290;28;20044;-72
2021/06/25 13:19:28;;;;;;;46.90;40.47;;;;;;;;;;5014338;28;20477;-72
2021/06/25 13:22:00;;;;;;;54.67;40.70;;;;;;;;;;5049171;28;20047;-72
2021/06/25 13:24:34;;;;;;;51.83;43.70;;;;;;;;;;5030999;28;20038;-72
2021/06/25 13:27:04;;;;;;;49.30;41.90;;;;;;;;;;5031446;28;20049;-72
2021/06/25 13:29:48;;;;;;;52.38;42.13;;;;;;;;;;5049026;28;20103;-72
2021/06/25 13:32:16;;;;;;;54.75;41.15;;;;;;;;;;5048267;28;20091;-72
2021/06/25 13:34:52;;;;;;;51.47;41.60;;;;;;;;;;5049228;28;20036;-72
2021/06/25 13:37:19;;;;;;;48.22;41.70;;;;;;;;;;5048417;28;20045;-72
2021/06/25 13:39:54;;;;;;;49.22;40.90;;;;;;;;;;5030558;28;20128;-72
2021/06/25 13:42:21;;;;;;;52.92;43.72;;;;;;;;;;5031491;28;20060;-72
2021/06/25 13:44:47;;;;;;;45.17;38.22;;;;;;;;;;5031660;28;20138;-73
2021/06/25 13:47:14;;;;;;;50.65;40.97;;;;;;;;;;5051744;28;20481;-73
2021/06/25 13:49:42;;;;;;;55.63;39.75;;;;;;;;;;5052774;28;20045;-72
2021/06/25 13:52:23;;;;;;;51.05;41.40;;;;;;;;;;5052955;28;20525;-73
2021/06/25 13:54:50;;;;;;;53.22;43.63;;;;;;;;;;5034784;28;20067;-73
2021/06/25 13:57:20;;;;;;;47.10;41.30;;;;;;;;;;5052159;28;20130;-73
2021/06/25 13:59:47;;;;;;;48.95;41.00;;;;;;;;;;5051937;28;20441;-73
2021/06/25 14:02:13;;;;;;;45.90;39.88;;;;;;;;;;5052391;28;20029;-73
2021/06/25 14:04:39;;;;;;;57.55;47.33;;;;;;;;;;5052572;28;20057;-72
2021/06/25 14:07:06;;;;;;;55.70;48.35;;;;;;;;;;5051986;28;20041;-73
2021/06/25 14:09:33;;;;;;;63.47;51.33;;;;;;;;;;5052335;28;20091;-73
2021/06/25 14:12:10;;;;;;;61.60;50.92;;;;;;;;;;5052473;28;20083;-73
2021/06/25 14:14:41;;;;;;;62.65;52.03;;;;;;;;;;5051198;28;20084;-73
2021/06/25 14:17:07;;;;;;;60.10;52.08;;;;;;;;;;5052584;28;20124;-73
2021/06/25 14:19:33;;;;;;;69.32;56.25;;;;;;;;;;5035654;28;20072;-73
2021/06/25 14:21:59;;;;;;;66.47;55.08;;;;;;;;;;5051427;28;20049;-73
2021/06/25 14:24:26;;;;;;;72.78;58.35;;;;;;;;;;5051505;28;20044;-73
2021/06/25 14:26:52;;;;;;;66.45;58.67;;;;;;;;;;5049544;28;20045;-73
2021/06/25 14:29:22;;;;;;;69.55;60.35;;;;;;;;;;5050523;28;20045;-73
2021/06/25 14:31:49;;;;;;;71.75;59.88;;;;;;;;;;5051090;28;20078;-73
2021/06/25 14:34:15;;;;;;;73.00;61.40;;;;;;;;;;5051194;28;20053;-73